Time;durP1;ratioP1;P1;durP2;ratioP2;P2;SDS_P1;SDS_P2;PMS_P1;PMS_P2;Temp;Humidity;BMP_temperature;BMP_pressure;BME280_temperature;BME280_humidity;BME280_pressure;Samples;Min_cycle;Max_cycle;Signal;HPM_P1;HPM_P2
2022/08/25 00:00:20;;;;;;;0.70;0.10;;;24.80;99.90;;;;;;5012366;28;20491;-72
2022/08/25 00:02:48;;;;;;;0.70;0.20;;;24.80;99.90;;;;;;5011901;28;20448;-72
2022/08/25 00:05:25;;;;;;;0.70;0.10;;;24.80;99.90;;;;;;5012344;28;20448;-72
2022/08/25 00:07:56;;;;;;;0.70;0.20;;;24.80;99.90;;;;;;5011812;28;20498;-72
2022/08/25 00:10:24;;;;;;;0.70;0.10;;;24.80;99.90;;;;;;5014134;28;20820;-73
2022/08/25 00:12:52;;;;;;;0.70;0.10;;;24.80;99.90;;;;;;5024016;28;20834;-72
2022/08/25 00:15:22;;;;;;;0.70;0.17;;;24.80;99.90;;;;;;5021220;28;20451;-73
2022/08/25 00:17:50;;;;;;;0.70;0.10;;;24.80;99.90;;;;;;5019191;28;20487;-72
2022/08/25 00:20:19;;;;;;;0.70;0.20;;;24.70;99.90;;;;;;5011869;28;20484;-73
2022/08/25 00:22:47;;;;;;;0.70;0.10;;;24.60;99.90;;;;;;5016392;28;20444;-74
2022/08/25 00:25:16;;;;;;;0.70;0.20;;;24.50;99.90;;;;;;5012272;28;20950;-74
2022/08/25 00:27:44;;;;;;;0.97;0.87;;;24.50;99.90;;;;;;5021909;28;20477;-72
2022/08/25 00:30:15;;;;;;;0.70;0.20;;;24.40;99.90;;;;;;5015043;28;20460;-72
2022/08/25 00:32:45;;;;;;;0.70;0.20;;;24.40;99.90;;;;;;5011764;28;20770;-72
2022/08/25 00:35:25;;;;;;;0.70;0.10;;;24.40;99.90;;;;;;5011735;28;20439;-73
2022/08/25 00:37:54;;;;;;;0.70;0.20;;;24.30;99.90;;;;;;5011841;28;20448;-73
2022/08/25 00:40:24;;;;;;;0.70;0.10;;;24.20;99.90;;;;;;5011701;28;20483;-73
2022/08/25 00:42:53;;;;;;;0.80;0.40;;;24.10;99.90;;;;;;5011679;28;20460;-71
2022/08/25 00:45:22;;;;;;;0.70;0.20;;;24.10;99.90;;;;;;5002551;28;20992;-72
2022/08/25 00:47:51;;;;;;;0.70;0.10;;;24.00;99.90;;;;;;5011329;28;20448;-73
2022/08/25 00:50:20;;;;;;;0.70;0.20;;;24.00;99.90;;;;;;5011421;28;20464;-72
2022/08/25 00:52:52;;;;;;;0.70;0.10;;;24.00;99.90;;;;;;5011373;28;20432;-72
2022/08/25 00:55:23;;;;;;;0.70;0.20;;;24.00;99.90;;;;;;5010398;28;20483;-72
2022/08/25 00:57:55;;;;;;;0.70;0.10;;;24.00;99.90;;;;;;5021180;28;20447;-72
2022/08/25 01:00:28;;;;;;;0.70;0.10;;;24.00;99.90;;;;;;5030236;28;20485;-72
2022/08/25 01:02:58;;;;;;;0.70;0.20;;;24.00;99.90;;;;;;5031681;28;20432;-72
2022/08/25 01:05:28;;;;;;;0.70;0.20;;;24.10;99.90;;;;;;5031100;28;20447;-73
2022/08/25 01:07:58;;;;;;;0.70;0.20;;;24.00;99.90;;;;;;5030697;28;20451;-73
2022/08/25 01:10:27;;;;;;;0.70;0.10;;;24.10;99.90;;;;;;5031509;28;20460;-72
2022/08/25 01:13:01;;;;;;;0.70;0.20;;;24.10;99.90;;;;;;5034843;28;20450;-73
2022/08/25 01:15:30;;;;;;;0.70;0.13;;;24.10;99.90;;;;;;5034901;28;20447;-73
2022/08/25 01:17:59;;;;;;;0.70;0.20;;;24.10;99.90;;;;;;5033597;28;20941;-72
2022/08/25 01:20:31;;;;;;;0.70;0.20;;;24.10;99.90;;;;;;5034165;28;20490;-72
2022/08/25 01:23:01;;;;;;;0.70;0.10;;;24.10;99.90;;;;;;5034271;28;20852;-72
2022/08/25 01:25:41;;;;;;;0.70;0.10;;;24.10;99.90;;;;;;5034433;28;20455;-72
2022/08/25 01:28:09;;;;;;;0.70;0.10;;;24.10;99.90;;;;;;5033709;28;20812;-73
2022/08/25 01:30:37;;;;;;;0.70;0.10;;;24.00;99.90;;;;;;5014963;28;20472;-73
2022/08/25 01:33:06;;;;;;;0.70;0.13;;;24.10;99.90;;;;;;5014672;28;20444;-72
2022/08/25 01:35:36;;;;;;;0.70;0.20;;;24.00;99.90;;;;;;5014906;28;20540;-72
2022/08/25 01:38:07;;;;;;;0.70;0.20;;;24.00;99.90;;;;;;5015028;28;20466;-73
2022/08/25 01:40:35;;;;;;;0.70;0.10;;;23.90;99.90;;;;;;5015725;28;20475;-73
2022/08/25 01:43:12;;;;;;;0.70;0.10;;;23.90;99.90;;;;;;5016763;28;20977;-72
2022/08/25 01:45:43;;;;;;;0.70;0.10;;;23.90;99.90;;;;;;5015835;28;20951;-72
2022/08/25 01:48:12;;;;;;;0.70;0.20;;;23.90;99.90;;;;;;5027804;28;20451;-72
2022/08/25 01:50:41;;;;;;;0.70;0.20;;;23.80;99.90;;;;;;5034149;28;20514;-72
2022/08/25 01:53:14;;;;;;;0.70;0.20;;;23.80;99.90;;;;;;5034734;28;20435;-73
2022/08/25 01:55:51;;;;;;;0.70;0.20;;;23.80;99.90;;;;;;5034388;28;20447;-72
2022/08/25 01:58:22;;;;;;;0.70;0.10;;;23.80;99.90;;;;;;5033932;28;20942;-73
2022/08/25 02:00:53;;;;;;;0.70;0.10;;;23.80;99.90;;;;;;5034259;28;20498;-73
2022/08/25 02:03:21;;;;;;;0.70;0.10;;;23.80;99.90;;;;;;5033471;28;20447;-71
2022/08/25 02:05:48;;;;;;;0.70;0.10;;;23.70;99.90;;;;;;5033501;28;20446;-72
2022/08/25 02:08:18;;;;;;;0.70;0.20;;;23.70;99.90;;;;;;5018945;28;20551;-72
2022/08/25 02:10:46;;;;;;;0.70;0.20;;;23.70;99.90;;;;;;5013319;28;20889;-73
2022/08/25 02:13:15;;;;;;;0.70;0.10;;;23.70;99.90;;;;;;5013594;28;20448;-72
2022/08/25 02:15:44;;;;;;;0.70;0.10;;;23.70;99.90;;;;;;5013733;28;20444;-73
2022/08/25 02:18:13;;;;;;;0.70;0.10;;;23.60;99.90;;;;;;5013915;28;20452;-73
2022/08/25 02:20:41;;;;;;;0.70;0.20;;;23.60;99.90;;;;;;5013337;28;20476;-73
2022/08/25 02:23:09;;;;;;;0.70;0.10;;;23.60;99.90;;;;;;5013106;28;21038;-73
2022/08/25 02:25:40;;;;;;;0.70;0.20;;;23.60;99.90;;;;;;5013191;28;20901;-72
2022/08/25 02:28:09;;;;;;;0.70;0.10;;;23.60;99.90;;;;;;5025313;28;20451;-72
2022/08/25 02:30:38;;;;;;;0.70;0.10;;;23.50;99.90;;;;;;5009854;28;20472;-73
2022/08/25 02:33:07;;;;;;;0.70;0.20;;;23.50;99.90;;;;;;5013176;28;20890;-72
2022/08/25 02:35:35;;;;;;;0.70;0.17;;;;;;;;;;5019376;28;20448;-72
2022/08/25 02:38:04;;;;;;;0.70;0.13;;;23.40;99.90;;;;;;5032767;28;20444;-72
2022/08/25 02:40:32;;;;;;;0.70;0.10;;;23.40;99.90;;;;;;5032890;28;20460;-72
2022/08/25 02:43:01;;;;;;;0.70;0.20;;;23.40;99.90;;;;;;5033122;28;20483;-72
2022/08/25 02:45:29;;;;;;;0.70;0.10;;;23.40;99.90;;;;;;5032196;28;20448;-72
2022/08/25 02:47:57;;;;;;;0.70;0.10;;;23.30;99.90;;;;;;5032576;28;20451;-72
2022/08/25 02:52:57;;;;;;;0.70;0.10;;;23.30;99.90;;;;;;5010409;28;20551;-75
2022/08/25 02:55:24;;;;;;;0.70;0.20;;;23.30;99.90;;;;;;5012863;28;20548;-75
2022/08/25 02:57:52;;;;;;;0.70;0.10;;;23.30;99.90;;;;;;5014107;28;20456;-75
2022/08/25 03:00:22;;;;;;;0.70;0.20;;;23.20;99.90;;;;;;5017709;28;20456;-75
2022/08/25 03:02:50;;;;;;;0.70;0.10;;;23.10;99.90;;;;;;5012960;28;20519;-76
2022/08/25 03:05:18;;;;;;;0.70;0.10;;;23.10;99.90;;;;;;5012687;28;20453;-76
2022/08/25 03:07:46;;;;;;;0.70;0.20;;;23.10;99.90;;;;;;5012708;28;20841;-76
2022/08/25 03:10:17;;;;;;;0.70;0.20;;;23.10;99.90;;;;;;5013273;28;20532;-76
2022/08/25 03:12:45;;;;;;;0.70;0.10;;;23.00;99.90;;;;;;5013098;28;20465;-76
2022/08/25 03:15:16;;;;;;;0.70;0.20;;;23.00;99.90;;;;;;5012791;28;20448;-75
2022/08/25 03:17:46;;;;;;;0.70;0.10;;;23.00;99.90;;;;;;5012962;28;20457;-76
2022/08/25 03:20:14;;;;;;;0.70;0.20;;;23.00;99.90;;;;;;5013657;28;20523;-76
2022/08/25 03:22:42;;;;;;;0.80;0.50;;;22.90;99.90;;;;;;5017861;28;20483;-74
2022/08/25 03:27:55;;;;;;;0.87;0.43;;;22.90;99.90;;;;;;4991990;28;20943;-71
2022/08/25 03:30:24;;;;;;;0.70;0.20;;;22.80;99.90;;;;;;5010284;28;20444;-71
2022/08/25 03:32:54;;;;;;;0.70;0.10;;;22.80;99.90;;;;;;5010826;28;20506;-70
2022/08/25 03:35:22;;;;;;;0.70;0.20;;;;;;;;;;5010689;28;20961;-70
2022/08/25 03:37:50;;;;;;;0.70;0.10;;;22.80;99.90;;;;;;5011459;28;20959;-70
2022/08/25 03:40:18;;;;;;;0.70;0.20;;;22.70;99.90;;;;;;5012007;28;20452;-70
2022/08/25 03:42:46;;;;;;;0.70;0.20;;;22.80;99.90;;;;;;5011708;28;20857;-71
2022/08/25 03:45:16;;;;;;;0.70;0.10;;;22.80;99.90;;;;;;5011729;28;20527;-71
2022/08/25 03:47:47;;;;;;;0.90;0.80;;;22.80;99.90;;;;;;4991935;28;20441;-70
2022/08/25 03:50:18;;;;;;;0.70;0.10;;;22.80;99.90;;;;;;4992070;28;20457;-70
2022/08/25 03:52:52;;;;;;;0.77;0.33;;;22.70;99.90;;;;;;4992035;28;20472;-72
2022/08/25 03:55:22;;;;;;;0.70;0.10;;;22.70;99.90;;;;;;4992365;28;20452;-73
2022/08/25 03:57:51;;;;;;;1.33;0.40;;;22.70;99.90;;;;;;5011153;28;20452;-71
2022/08/25 04:00:20;;;;;;;0.70;0.10;;;22.70;99.90;;;;;;5011776;28;20994;-70
2022/08/25 04:02:48;;;;;;;0.70;0.40;;;22.60;99.90;;;;;;5011398;28;20483;-72
2022/08/25 04:05:19;;;;;;;0.70;0.10;;;22.60;99.90;;;;;;5010933;28;20506;-70
2022/08/25 04:07:46;;;;;;;0.90;0.47;;;22.60;99.90;;;;;;5026098;28;20447;-70
2022/08/25 04:10:15;;;;;;;0.70;0.10;;;22.50;99.90;;;;;;5031904;28;20442;-70
2022/08/25 04:12:42;;;;;;;0.70;0.13;;;22.60;99.90;;;;;;5031476;28;20490;-73
2022/08/25 04:15:11;;;;;;;0.70;0.10;;;22.60;99.90;;;;;;5031440;28;20516;-70
2022/08/25 04:17:40;;;;;;;0.70;0.10;;;;;;;;;;5011685;28;20452;-70
2022/08/25 04:20:10;;;;;;;0.70;0.20;;;22.60;99.90;;;;;;5011360;28;20759;-71
2022/08/25 04:22:42;;;;;;;0.70;0.10;;;22.60;99.90;;;;;;5011746;28;20484;-73
2022/08/25 04:25:12;;;;;;;0.70;0.10;;;22.60;99.90;;;;;;5011926;28;20538;-71
2022/08/25 04:49:59;;;;;;;0.70;0.20;;;22.80;99.90;;;;;;5029349;28;20460;-78
2022/08/25 04:52:27;;;;;;;0.70;0.20;;;22.70;99.90;;;;;;5028092;28;20463;-77
2022/08/25 04:54:55;;;;;;;0.70;0.17;;;22.60;99.90;;;;;;5031925;28;20455;-75
2022/08/25 04:57:23;;;;;;;0.70;0.10;;;22.60;99.90;;;;;;5019182;28;20464;-77
